Time;durP1;ratioP1;P1;durP2;ratioP2;P2;SDS_P1;SDS_P2;PMS_P1;PMS_P2;Temp;Humidity;BMP_temperature;BMP_pressure;BME280_temperature;BME280_humidity;BME280_pressure;Samples;Min_cycle;Max_cycle;Signal;HPM_P1;HPM_P2
2022/03/21 06:46:30;;;;;;;3.20;2.25;;;;;;;19.11;48.59;100660.23;1918232;72;28124;-77
2022/03/21 06:49:20;;;;;;;2.60;2.40;;;;;;;19.46;48.53;100671.54;1869680;76;28181;-76
2022/03/21 06:52:08;;;;;;;2.72;2.00;;;;;;;20.19;46.94;100676.47;1869485;76;28250;-76
2022/03/21 06:54:57;;;;;;;2.45;2.25;;;;;;;20.81;45.81;100673.23;1880539;75;31200;-77
2022/03/21 06:57:45;;;;;;;2.20;2.10;;;;;;;21.30;44.70;100670.06;1884044;75;28167;-77
2022/03/21 07:00:34;;;;;;;2.30;2.10;;;;;;;21.72;43.70;100670.48;1887116;75;38138;-78
2022/03/21 07:03:24;;;;;;;2.77;2.08;;;;;;;22.06;42.82;100681.44;1892268;75;28238;-77
2022/03/21 07:06:12;;;;;;;2.72;2.17;;;;;;;22.32;42.18;100684.83;1891494;75;28164;-78
2022/03/21 07:09:01;;;;;;;2.40;2.20;;;;;;;22.53;41.55;100685.55;1880781;75;28254;-78
2022/03/21 07:11:49;;;;;;;15.30;3.05;;;;;;;22.70;40.96;100690.17;1878933;75;28108;-79
2022/03/21 07:14:38;;;;;;;4.72;2.00;;;;;;;22.79;40.56;100684.81;1888622;75;28192;-68
2022/03/21 07:17:26;;;;;;;4.90;2.15;;;;;;;22.90;40.24;100688.31;1895317;73;28058;-70
2022/03/21 07:20:15;;;;;;;2.75;2.42;;;;;;;22.98;40.01;100686.76;1874952;75;28122;-71
2022/03/21 07:23:03;;;;;;;2.12;2.02;;;;;;;23.07;39.66;100689.61;1891384;75;28112;-72
2022/03/21 07:25:51;;;;;;;2.10;2.00;;;;;;;23.12;39.50;100687.61;1869920;75;28196;-73
2022/03/21 07:28:40;;;;;;;2.30;2.10;;;;;;;23.22;39.41;100685.31;1889926;75;28157;-76
2022/03/21 07:31:28;;;;;;;2.50;2.30;;;;;;;23.27;39.35;100689.09;1883744;75;28277;-73
2022/03/21 07:34:17;;;;;;;2.15;2.00;;;;;;;23.38;39.28;100691.23;1893613;75;28266;-74
2022/03/21 07:37:06;;;;;;;2.12;2.02;;;;;;;23.46;39.21;100689.33;1891726;75;31019;-74
2022/03/21 07:39:54;;;;;;;2.10;2.00;;;;;;;23.50;39.24;100690.62;1887678;75;28036;-74
2022/03/21 07:42:45;;;;;;;2.10;2.00;;;;;;;23.50;39.25;100694.73;1889514;75;28203;-72
2022/03/21 07:48:40;;;;;;;2.75;2.10;;;;;;;23.56;39.23;100687.02;1884123;75;28123;-72
2022/03/21 07:51:28;;;;;;;2.10;2.00;;;;;;;23.57;39.34;100690.09;1892989;75;28083;-74
2022/03/21 07:54:17;;;;;;;2.20;2.10;;;;;;;23.62;39.33;100697.16;1876097;75;28168;-69
2022/03/21 07:57:05;;;;;;;2.35;2.12;;;;;;;23.64;39.27;100690.92;1880690;75;28168;-73
2022/03/21 07:59:54;;;;;;;1.98;1.87;;;;;;;23.65;39.43;100692.59;1862322;75;28118;-73
2022/03/21 08:02:44;;;;;;;2.20;2.10;;;;;;;23.65;39.50;100700.82;1890368;75;28123;-72
2022/03/21 08:05:33;;;;;;;1.95;1.85;;;;;;;23.67;39.51;100703.67;1873260;75;28393;-69
2022/03/21 08:08:21;;;;;;;2.50;2.30;;;;;;;23.71;39.43;100693.13;1879808;75;28085;-67
2022/03/21 08:11:12;;;;;;;2.27;2.00;;;;;;;23.71;39.47;100695.88;1879804;75;28039;-69
2022/03/21 08:14:00;;;;;;;2.15;2.00;;;;;;;23.68;39.47;100697.14;1868273;75;28147;-70
2022/03/21 08:16:51;;;;;;;2.15;2.02;;;;;;;23.63;39.46;100698.83;1872190;75;28041;-70
2022/03/21 08:19:41;;;;;;;2.30;2.20;;;;;;;23.69;39.44;100696.07;1900793;75;28152;-69
2022/03/21 08:22:29;;;;;;;2.27;2.08;;;;;;;23.72;39.33;100692.06;1874937;75;28228;-69
2022/03/21 08:25:27;;;;;;;2.10;2.00;;;;;;;23.75;39.29;100697.13;1868713;75;28233;-72
2022/03/21 08:28:11;;;;;;;2.05;1.95;;;;;;;23.74;39.26;100692.69;1880128;75;28885;-71
2022/03/21 08:30:59;;;;;;;2.40;2.20;;;;;;;23.77;39.14;100692.27;1882878;75;28050;-71
2022/03/21 08:33:47;;;;;;;2.10;2.00;;;;;;;23.77;38.98;100689.00;1860209;75;28203;-71
2022/03/21 08:36:36;;;;;;;2.33;1.90;;;;;;;23.74;38.88;100689.94;1888135;75;28098;-72
2022/03/21 08:39:24;;;;;;;2.77;2.10;;;;;;;23.74;38.69;100685.83;1870076;75;28115;-72
2022/03/21 08:42:12;;;;;;;3.08;2.30;;;;;;;23.77;38.56;100689.52;1879397;75;28184;-71
2022/03/21 08:45:01;;;;;;;2.17;2.08;;;;;;;23.80;38.40;100689.11;1879198;75;28106;-71
2022/03/21 08:47:53;;;;;;;2.17;1.98;;;;;;;23.80;38.25;100694.59;1889045;74;28098;-71
2022/03/21 08:50:42;;;;;;;2.40;2.20;;;;;;;23.81;38.14;100690.25;1886043;74;28648;-73
2022/03/21 08:53:30;;;;;;;2.10;2.00;;;;;;;23.80;38.02;100689.11;1875980;76;28101;-71
2022/03/21 08:56:18;;;;;;;2.08;1.98;;;;;;;23.82;37.92;100681.50;1899426;74;28086;-71
2022/03/21 08:59:07;;;;;;;3.00;1.90;;;;;;;23.80;37.97;100672.64;1894696;74;28114;-70
2022/03/21 09:01:56;;;;;;;10.00;2.72;;;;;;;23.80;37.96;100671.27;1898907;74;28123;-72
2022/03/21 09:04:45;;;;;;;7.25;2.58;;;;;;;23.75;38.13;100665.58;1898227;74;28183;-70
2022/03/21 09:07:34;;;;;;;6.70;2.40;;;;;;;23.75;38.42;100665.05;1878547;74;28116;-70
2022/03/21 09:10:22;;;;;;;5.17;2.47;;;;;;;23.77;38.58;100663.45;1909678;74;28056;-77
2022/03/21 09:13:11;;;;;;;6.28;2.40;;;;;;;23.78;38.79;100659.12;1888902;74;28113;-72
2022/03/21 09:15:59;;;;;;;7.12;2.85;;;;;;;23.81;38.96;100655.11;1907592;74;28041;-74
2022/03/21 09:18:47;;;;;;;2.95;2.47;;;;;;;23.80;39.20;100653.44;1892757;74;28203;-72
2022/03/21 09:21:37;;;;;;;3.85;2.27;;;;;;;23.80;39.46;100648.80;1892603;74;28984;-72
2022/03/21 09:24:26;;;;;;;4.03;2.02;;;;;;;23.81;39.58;100654.58;1907202;74;28182;-71
2022/03/21 09:27:16;;;;;;;4.40;2.40;;;;;;;23.82;39.77;100651.31;1888462;74;28116;-70
2022/03/21 09:30:06;;;;;;;3.67;2.17;;;;;;;23.81;39.99;100648.24;1903567;74;28087;-70
2022/03/21 09:32:54;;;;;;;5.42;2.30;;;;;;;23.80;39.88;100648.80;1880274;74;28505;-68
2022/03/21 09:35:47;;;;;;;3.33;2.15;;;;;;;23.79;39.89;100647.09;1897843;74;28074;-67
2022/03/21 09:38:37;;;;;;;3.08;2.15;;;;;;;23.77;39.96;100640.14;1888896;74;28231;-66
2022/03/21 09:41:27;;;;;;;2.92;2.20;;;;;;;23.80;39.86;100640.56;1897487;74;28084;-69
2022/03/21 09:44:15;;;;;;;3.93;2.30;;;;;;;23.80;40.09;100639.72;1888979;74;28146;-68
2022/03/21 09:49:59;;;;;;;3.05;2.33;;;;;;;23.84;40.31;100630.84;1854256;74;28146;-69
2022/03/21 09:52:48;;;;;;;2.45;2.05;;;;;;;23.84;40.47;100629.47;1891380;74;28657;-71
2022/03/21 09:55:37;;;;;;;2.90;2.10;;;;;;;23.86;40.60;100624.60;1891602;74;28095;-70
2022/03/21 09:58:27;;;;;;;2.35;2.10;;;;;;;23.85;40.84;100623.45;1888747;74;28097;-72
2022/03/21 10:01:16;;;;;;;3.00;2.10;;;;;;;23.86;41.09;100623.23;1889590;73;38456;-73
2022/03/21 10:04:07;;;;;;;4.10;2.15;;;;;;;23.83;41.13;100611.83;1902656;73;28104;-71
2022/03/21 10:07:00;;;;;;;2.27;1.95;;;;;;;23.91;41.05;100623.43;1899687;74;28126;-71
2022/03/21 10:10:06;;;;;;;2.55;2.35;;;;;;;23.92;41.00;100616.05;1899690;74;28156;-69
2022/03/21 10:12:56;;;;;;;5.37;2.07;;;;;;;23.92;41.12;100609.19;1883052;73;28219;-72
2022/03/21 10:15:45;;;;;;;2.27;1.98;;;;;;;23.90;41.12;100604.41;1891928;74;29030;-72
2022/03/21 10:18:33;;;;;;;3.52;2.00;;;;;;;23.90;41.21;100601.67;1893765;74;28210;-72
2022/03/21 10:21:24;;;;;;;2.92;2.10;;;;;;;23.90;41.29;100603.05;1898478;74;28172;-71
2022/03/21 10:24:18;;;;;;;2.20;2.00;;;;;;;23.89;41.45;100598.63;1879684;74;28125;-71
2022/03/21 10:27:07;;;;;;;4.33;3.60;;;;;;;23.91;41.49;100595.98;1889626;74;28168;-66
2022/03/21 10:30:00;;;;;;;6.67;4.40;;;;;;;23.71;37.50;100593.00;1903776;74;28079;-69
2022/03/21 10:32:53;;;;;;;3.20;2.60;;;;;;;23.42;35.75;100585.24;1890653;74;28302;-70
2022/03/21 10:35:47;;;;;;;3.05;2.77;;;;;;;23.54;37.16;100582.17;1887200;74;28217;-69
2022/03/21 10:38:38;;;;;;;2.80;2.60;;;;;;;23.58;37.43;100577.92;1837235;77;28205;-68
2022/03/21 10:41:29;;;;;;;3.10;2.12;;;;;;;23.63;37.74;100575.39;1839448;77;28170;-69
2022/03/21 10:44:18;;;;;;;2.50;2.30;;;;;;;23.64;37.92;100577.09;1835347;77;28251;-69
2022/03/21 10:47:09;;;;;;;3.05;2.50;;;;;;;23.67;38.06;100569.77;1841719;77;28325;-69
2022/03/21 10:50:00;;;;;;;3.47;2.33;;;;;;;23.74;38.13;100571.97;1841056;76;28268;-68
2022/03/21 10:52:51;;;;;;;2.55;2.35;;;;;;;23.70;38.25;100549.63;1835978;77;28288;-68
2022/03/21 10:55:42;;;;;;;2.80;2.13;;;;;;;23.79;38.27;100550.22;1839461;77;28266;-69
2022/03/21 10:58:42;;;;;;;2.75;2.40;;;;;;;23.81;38.30;100550.31;1834712;77;28411;-69
2022/03/21 11:01:32;;;;;;;3.10;2.42;;;;;;;23.84;38.31;100542.18;1870580;76;28223;-68
2022/03/21 11:04:20;;;;;;;2.20;2.10;;;;;;;23.85;38.38;100542.51;1833906;77;28482;-69
2022/03/21 11:07:12;;;;;;;2.20;2.05;;;;;;;23.85;38.45;100537.02;1844146;77;28182;-68
2022/03/21 11:10:01;;;;;;;3.20;2.20;;;;;;;23.90;38.41;100530.32;1835349;77;28273;-67
2022/03/21 11:12:50;;;;;;;2.60;2.02;;;;;;;23.88;38.48;100522.31;1843551;77;28332;-67
2022/03/21 11:15:43;;;;;;;2.27;2.17;;;;;;;23.93;38.48;100521.66;1866188;76;28081;-67
2022/03/21 11:18:32;;;;;;;2.40;2.30;;;;;;;23.97;38.49;100511.92;1838138;77;28409;-66
2022/03/21 11:21:21;;;;;;;3.37;2.12;;;;;;;23.97;38.47;100518.26;1842228;77;28381;-68
2022/03/21 11:24:15;;;;;;;2.25;2.15;;;;;;;24.01;38.50;100510.45;1824136;78;28367;-68
2022/03/21 11:27:13;;;;;;;3.72;2.42;;;;;;;24.02;38.48;100504.72;1834170;77;33676;-66
2022/03/21 11:30:36;;;;;;;2.22;2.02;;;;;;;24.01;38.49;100495.34;1824126;78;28361;-67
2022/03/21 11:33:44;;;;;;;2.25;2.05;;;;;;;24.03;38.51;100483.61;1855022;77;28239;-67
2022/03/21 11:36:32;;;;;;;2.55;2.15;;;;;;;24.00;38.56;100479.93;1841895;77;28248;-67
2022/03/21 11:39:22;;;;;;;2.25;2.05;;;;;;;24.04;38.57;100470.19;1836999;77;28251;-66
2022/03/21 11:42:11;;;;;;;2.85;2.20;;;;;;;24.04;38.54;100461.95;1840116;77;28425;-66
2022/03/21 11:45:19;;;;;;;3.00;2.12;;;;;;;24.07;38.58;100458.80;1821924;77;28186;-66
2022/03/21 11:48:23;;;;;;;2.08;1.90;;;;;;;24.10;38.48;100455.62;1863428;76;28112;-68
2022/03/21 11:51:21;;;;;;;2.20;2.10;;;;;;;24.10;38.53;100445.17;1828928;77;28319;-67
2022/03/21 11:54:30;;;;;;;2.30;2.10;;;;;;;24.11;38.56;100446.31;1900981;75;28114;-70
2022/03/21 11:57:33;;;;;;;2.73;2.00;;;;;;;24.11;38.50;100442.20;1882914;75;28074;-68
2022/03/21 12:00:25;;;;;;;2.30;1.97;;;;;;;24.10;38.55;100433.67;1879654;75;28149;-67
2022/03/21 12:03:12;;;;;;;2.42;2.10;;;;;;;24.13;38.46;100429.12;1895328;75;28217;-66
2022/03/21 12:06:23;;;;;;;2.27;2.10;;;;;;;24.14;38.48;100418.95;1890713;75;28099;-67
2022/03/21 12:09:14;;;;;;;2.83;1.77;;;;;;;24.17;38.49;100415.77;1889823;75;38404;-66
2022/03/21 12:12:03;;;;;;;2.00;1.90;;;;;;;24.16;38.41;100412.17;1884985;75;28192;-67
2022/03/21 12:14:56;;;;;;;1.92;1.82;;;;;;;24.15;38.36;100407.77;1879227;75;28202;-68
2022/03/21 12:17:50;;;;;;;1.92;1.82;;;;;;;24.16;38.44;100408.06;1873275;75;28240;-67
2022/03/21 12:20:50;;;;;;;2.12;1.90;;;;;;;24.20;38.40;100405.73;1832941;77;28191;-69
2022/03/21 12:23:38;;;;;;;2.55;2.05;;;;;;;24.18;38.34;100396.31;1887585;75;28122;-67
2022/03/21 12:26:36;;;;;;;1.87;1.77;;;;;;;24.18;38.43;100385.89;1881567;75;28094;-67
2022/03/21 12:29:33;;;;;;;2.30;2.10;;;;;;;24.18;38.37;100382.59;1892165;75;28211;-68
2022/03/21 12:32:27;;;;;;;1.92;1.82;;;;;;;24.23;38.36;100380.55;1890499;75;28153;-69
2022/03/21 12:35:46;;;;;;;3.98;2.05;;;;;;;24.21;38.32;100377.19;1868869;76;28142;-65
2022/03/21 12:38:36;;;;;;;2.12;1.85;;;;;;;24.21;38.31;100371.70;1891326;75;28633;-66
2022/03/21 12:41:28;;;;;;;1.95;1.85;;;;;;;24.23;38.26;100369.56;1883746;75;28265;-70
2022/03/21 12:44:16;;;;;;;3.62;2.40;;;;;;;24.22;38.21;100363.26;1868767;76;28210;-66
2022/03/21 12:47:05;;;;;;;2.37;1.80;;;;;;;24.21;38.18;100357.97;1890703;75;28296;-66
2022/03/21 12:49:55;;;;;;;2.00;1.90;;;;;;;24.19;38.15;100358.20;1888186;75;28149;-66
2022/03/21 12:52:43;;;;;;;2.20;2.10;;;;;;;24.25;38.02;100352.36;1874855;75;28087;-68
2022/03/21 12:55:33;;;;;;;2.25;2.15;;;;;;;24.20;38.02;100351.63;1869192;75;28032;-68
2022/03/21 12:58:21;;;;;;;2.20;1.90;;;;;;;24.23;37.93;100349.82;1894388;75;28149;-67
2022/03/21 13:01:10;;;;;;;2.08;1.98;;;;;;;24.23;37.93;100342.95;1868490;76;28152;-67
2022/03/21 13:10:36;;;;;;;2.92;2.05;;;;;;;24.27;37.97;100340.06;1882684;75;28090;-68
2022/03/21 13:13:25;;;;;;;2.00;1.90;;;;;;;24.23;37.95;100325.11;1888607;75;28156;-68
2022/03/21 13:16:15;;;;;;;2.45;2.00;;;;;;;24.26;37.87;100323.30;1871797;75;28166;-69
2022/03/21 13:19:03;;;;;;;2.00;1.90;;;;;;;24.26;37.76;100324.67;1877990;75;28136;-66
2022/03/21 13:21:58;;;;;;;2.12;1.95;;;;;;;24.26;37.83;100321.92;1868252;75;28130;-67
2022/03/21 13:24:49;;;;;;;2.25;2.08;;;;;;;24.28;37.71;100322.53;1856548;77;28154;-67
2022/03/21 13:27:38;;;;;;;2.35;2.02;;;;;;;24.28;37.60;100311.55;1890323;75;28696;-68
2022/03/21 13:30:26;;;;;;;2.40;2.20;;;;;;;24.29;37.51;100311.87;1870151;75;28198;-68
2022/03/21 13:33:21;;;;;;;2.37;2.10;;;;;;;24.28;37.45;100309.33;1869356;75;28278;-69
2022/03/21 13:36:26;;;;;;;2.20;2.10;;;;;;;24.29;37.39;100308.28;1868386;76;38565;-67
2022/03/21 13:39:25;;;;;;;2.40;2.20;;;;;;;24.31;37.23;100308.36;1868137;76;28192;-66
2022/03/21 13:42:16;;;;;;;2.10;2.00;;;;;;;24.30;37.15;100305.82;1890235;75;28251;-67
2022/03/21 13:45:06;;;;;;;2.35;2.10;;;;;;;24.26;37.01;100304.08;1878219;75;28091;-68
2022/03/21 13:47:55;;;;;;;2.50;2.30;;;;;;;24.23;37.01;100294.91;1883235;73;28181;-69
2022/03/21 13:50:43;;;;;;;2.35;2.20;;;;;;;24.25;36.92;100292.77;1852386;75;28209;-66
2022/03/21 13:53:32;;;;;;;2.80;2.10;;;;;;;24.27;36.77;100287.08;1904750;74;28059;-66
2022/03/21 13:56:29;;;;;;;2.30;2.10;;;;;;;24.27;36.60;100280.21;1886912;74;28219;-68
2022/03/21 13:59:21;;;;;;;2.45;2.25;;;;;;;24.27;36.60;100282.95;1898102;74;28101;-67
2022/03/21 14:02:10;;;;;;;2.25;2.10;;;;;;;24.28;36.45;100276.38;1895712;74;28288;-69
2022/03/21 14:04:58;;;;;;;2.10;2.00;;;;;;;24.29;36.39;100270.69;1900230;74;35099;-67
2022/03/21 14:07:49;;;;;;;2.60;2.40;;;;;;;24.30;36.35;100270.97;1915076;73;28135;-69
2022/03/21 14:10:40;;;;;;;2.42;2.20;;;;;;;24.30;36.33;100266.01;1903614;74;28026;-69
2022/03/21 14:13:29;;;;;;;2.37;2.20;;;;;;;24.30;36.33;100266.86;1892210;74;28160;-68
2022/03/21 14:16:18;;;;;;;2.25;2.10;;;;;;;24.30;36.40;100258.62;1910499;74;28086;-68
2022/03/21 14:19:06;;;;;;;2.80;2.30;;;;;;;24.26;36.43;100262.05;1918201;73;28102;-70
2022/03/21 14:21:54;;;;;;;2.70;2.30;;;;;;;24.29;36.44;100255.58;1878024;76;28136;-67
2022/03/21 14:24:43;;;;;;;2.25;2.15;;;;;;;24.29;36.42;100256.11;1880734;74;28682;-68
2022/03/21 14:27:31;;;;;;;2.45;2.35;;;;;;;24.28;36.44;100248.40;1906718;73;28160;-68
2022/03/21 14:30:20;;;;;;;2.30;2.10;;;;;;;24.27;36.53;100242.59;1899685;74;28205;-68
2022/03/21 14:33:09;;;;;;;2.33;2.12;;;;;;;24.30;36.55;100240.77;1894495;74;28145;-70
2022/03/21 14:35:57;;;;;;;2.60;2.40;;;;;;;24.32;36.54;100247.42;1888689;74;28099;-71
2022/03/21 14:38:47;;;;;;;2.20;2.10;;;;;;;24.33;36.55;100234.83;1910349;74;28147;-69
2022/03/21 14:41:35;;;;;;;2.35;2.22;;;;;;;24.36;36.50;100230.27;1889642;74;28125;-68
2022/03/21 14:44:25;;;;;;;2.20;2.10;;;;;;;24.37;36.47;100229.70;1877991;76;28282;-69
2022/03/21 14:47:14;;;;;;;2.67;2.47;;;;;;;24.37;36.50;100224.22;1901039;73;28121;-70
2022/03/21 14:50:02;;;;;;;2.40;2.20;;;;;;;24.38;36.47;100217.14;1890003;74;28475;-70
2022/03/21 14:52:50;;;;;;;2.30;2.17;;;;;;;24.36;36.52;100213.79;1897601;74;28204;-68
2022/03/21 14:55:39;;;;;;;2.42;2.22;;;;;;;24.39;36.47;100213.31;1897017;74;28144;-73
2022/03/21 14:58:29;;;;;;;2.52;2.33;;;;;;;24.39;36.51;100214.69;1903403;74;28128;-69
2022/03/21 15:01:17;;;;;;;2.60;2.40;;;;;;;24.40;36.51;100220.49;1885788;74;28301;-69
2022/03/21 15:04:05;;;;;;;2.33;2.22;;;;;;;24.40;36.51;100210.88;1896864;74;28108;-69
2022/03/21 15:06:55;;;;;;;2.30;2.20;;;;;;;24.40;36.53;100207.29;1891489;74;30124;-68
2022/03/21 15:12:55;;;;;;;2.25;2.15;;;;;;;24.40;36.60;100213.63;1900202;74;28160;-70
2022/03/21 15:15:44;;;;;;;2.30;2.20;;;;;;;24.39;36.62;100200.95;1899823;74;28123;-70
2022/03/21 15:18:33;;;;;;;3.17;2.10;;;;;;;24.41;36.61;100200.19;1890323;73;28491;-70
2022/03/21 15:21:22;;;;;;;2.22;2.12;;;;;;;24.38;36.64;100201.20;1892820;74;28143;-71
2022/03/21 15:24:11;;;;;;;2.80;2.60;;;;;;;24.41;36.63;100200.74;1900268;74;28156;-69
2022/03/21 15:26:59;;;;;;;2.35;2.15;;;;;;;24.42;36.67;100206.52;1899369;74;28101;-70
2022/03/21 15:29:48;;;;;;;2.58;2.37;;;;;;;24.44;36.65;100197.52;1890670;73;28182;-66
2022/03/21 15:32:38;;;;;;;2.30;2.10;;;;;;;24.44;36.65;100204.38;1898040;73;28249;-69
2022/03/21 15:35:27;;;;;;;2.33;2.23;;;;;;;24.46;36.68;100195.38;1878764;76;28121;-69
2022/03/21 15:41:40;;;;;;;2.40;2.30;;;;;;;24.45;36.78;100194.56;1895767;74;28039;-71
2022/03/21 15:44:28;;;;;;;2.20;2.10;;;;;;;24.42;36.78;100192.80;1878461;76;28187;-70
2022/03/21 15:47:17;;;;;;;2.33;2.15;;;;;;;24.40;36.83;100188.91;1910247;74;28054;-70
2022/03/21 15:50:06;;;;;;;2.50;2.30;;;;;;;24.43;36.77;100188.46;1904537;74;28168;-69
2022/03/21 15:52:55;;;;;;;2.35;2.25;;;;;;;24.45;36.71;100187.70;1899410;74;28106;-68
2022/03/21 15:55:44;;;;;;;2.47;2.27;;;;;;;24.49;36.69;100191.65;1876986;74;32151;-68
2022/03/21 15:58:33;;;;;;;2.42;2.33;;;;;;;24.50;36.71;100169.99;1878390;75;28294;-69
2022/03/21 16:01:22;;;;;;;2.47;2.27;;;;;;;24.47;36.73;100175.94;1872988;75;28255;-67
2022/03/21 16:04:11;;;;;;;2.50;2.30;;;;;;;24.51;36.81;100182.64;1901601;75;28046;-71
2022/03/21 16:06:59;;;;;;;2.83;2.40;;;;;;;24.55;36.78;100182.48;1870946;75;28080;-69
2022/03/21 16:09:48;;;;;;;2.58;2.40;;;;;;;24.57;36.73;100184.48;1881313;75;28130;-72
2022/03/21 16:12:38;;;;;;;2.20;2.10;;;;;;;24.56;36.74;100181.42;1878766;75;28048;-69
2022/03/21 16:15:26;;;;;;;2.47;2.27;;;;;;;24.57;36.65;100181.73;1857080;77;28145;-68
2022/03/21 16:18:15;;;;;;;2.42;2.22;;;;;;;24.57;36.61;100185.02;1869130;76;28168;-69
2022/03/21 16:21:06;;;;;;;2.30;2.20;;;;;;;24.59;36.58;100183.71;1878806;75;28110;-68
2022/03/21 16:23:54;;;;;;;2.20;2.10;;;;;;;24.58;36.56;100183.39;1878656;75;29138;-71
2022/03/21 16:26:44;;;;;;;2.60;2.40;;;;;;;24.60;36.47;100181.78;1857151;77;28150;-70
2022/03/21 16:29:32;;;;;;;2.52;2.35;;;;;;;24.59;36.44;100186.98;1866869;75;28129;-70
2022/03/21 16:32:21;;;;;;;2.25;2.12;;;;;;;24.58;36.41;100188.89;1863542;75;28131;-71
2022/03/21 16:35:11;;;;;;;2.20;2.10;;;;;;;24.59;36.30;100184.24;1879643;75;28110;-70
2022/03/21 16:37:59;;;;;;;2.40;2.30;;;;;;;24.59;36.29;100190.58;1889156;75;28040;-69
2022/03/21 16:40:47;;;;;;;2.37;2.27;;;;;;;24.60;36.18;100184.00;1879675;75;28031;-70
2022/03/21 16:43:38;;;;;;;2.37;2.27;;;;;;;24.59;36.15;100192.48;1866339;74;28201;-71
2022/03/21 16:46:27;;;;;;;2.50;2.30;;;;;;;24.61;36.07;100188.97;1869012;76;28173;-68
2022/03/21 16:49:15;;;;;;;2.35;2.20;;;;;;;24.59;36.08;100194.70;1872390;75;28087;-69
2022/03/21 16:52:04;;;;;;;2.65;2.45;;;;;;;24.58;36.09;100197.66;1896279;75;28220;-69
2022/03/21 16:54:54;;;;;;;2.62;2.17;;;;;;;24.58;36.04;100202.63;1870799;74;28124;-72
2022/03/21 16:57:43;;;;;;;2.30;2.20;;;;;;;24.58;36.06;100197.66;1910935;74;28181;-74
2022/03/21 17:00:31;;;;;;;2.45;2.25;;;;;;;24.57;36.06;100213.33;1892642;74;28043;-73
2022/03/21 17:03:23;;;;;;;3.65;2.30;;;;;;;24.56;36.04;100203.92;1902796;74;28254;-69
2022/03/21 17:06:11;;;;;;;2.40;2.20;;;;;;;24.54;35.98;100198.67;1888659;74;30138;-73
2022/03/21 17:09:07;;;;;;;2.33;2.22;;;;;;;24.53;35.97;100208.49;1897265;74;28079;-72
2022/03/21 17:12:00;;;;;;;2.50;2.37;;;;;;;24.51;35.97;100211.48;1916638;73;28104;-71
2022/03/21 17:14:52;;;;;;;2.55;2.35;;;;;;;24.48;35.93;100213.30;1909418;74;28171;-69
2022/03/21 17:17:40;;;;;;;3.20;2.27;;;;;;;24.47;35.96;100218.51;1906292;74;28244;-69
2022/03/21 17:23:36;;;;;;;2.60;2.50;;;;;;;24.45;35.95;100230.27;1878215;76;28136;-71
2022/03/21 17:26:25;;;;;;;2.40;2.20;;;;;;;24.42;35.98;100229.87;1911326;74;30004;-71
2022/03/21 17:29:13;;;;;;;2.10;2.00;;;;;;;24.42;35.96;100232.61;1889046;74;28207;-69
2022/03/21 17:32:02;;;;;;;2.72;2.52;;;;;;;24.42;35.92;100233.45;1889236;74;28108;-69
2022/03/21 17:34:51;;;;;;;2.50;2.30;;;;;;;24.38;35.96;100229.50;1892598;74;28192;-69
2022/03/21 17:37:41;;;;;;;2.20;2.10;;;;;;;24.39;35.94;100236.66;1878264;76;28211;-71
2022/03/21 17:40:30;;;;;;;2.70;2.60;;;;;;;24.37;35.95;100235.20;1907270;74;28169;-70
2022/03/21 17:43:19;;;;;;;2.60;2.40;;;;;;;24.37;35.97;100236.05;1889122;74;28124;-68
2022/03/21 17:46:10;;;;;;;2.77;2.57;;;;;;;24.33;35.95;100237.58;1911010;74;28118;-67
2022/03/21 17:48:59;;;;;;;2.30;2.20;;;;;;;24.33;35.95;100240.33;1913448;74;28098;-67
2022/03/21 17:51:52;;;;;;;2.47;2.27;;;;;;;24.32;35.95;100250.98;1888851;74;28075;-70
2022/03/21 17:54:38;;;;;;;2.60;2.40;;;;;;;24.32;35.96;100257.85;1888754;74;28214;-71
2022/03/21 17:57:27;;;;;;;2.60;2.40;;;;;;;24.32;35.91;100259.22;1871073;76;28173;-70
2022/03/21 18:00:19;;;;;;;2.30;2.20;;;;;;;24.30;35.90;100256.40;1869248;76;28141;-70
2022/03/21 18:03:06;;;;;;;2.33;2.22;;;;;;;24.28;35.92;100265.40;1872947;75;28035;-71
2022/03/21 18:05:55;;;;;;;2.50;2.40;;;;;;;24.28;35.89;100270.37;1862578;75;28051;-71
2022/03/21 18:08:48;;;;;;;2.50;2.30;;;;;;;24.27;35.87;100274.72;1880429;75;28065;-69
2022/03/21 18:11:35;;;;;;;2.70;2.50;;;;;;;24.26;35.84;100275.25;1869486;75;28138;-70
2022/03/21 18:14:25;;;;;;;2.50;2.30;;;;;;;24.25;35.80;100274.92;1890892;75;28180;-71
2022/03/21 18:17:13;;;;;;;2.62;2.42;;;;;;;24.25;35.78;100278.23;1872816;75;28192;-69
2022/03/21 18:20:02;;;;;;;2.60;2.40;;;;;;;24.25;35.80;100277.67;1884209;75;28673;-68
2022/03/21 18:22:51;;;;;;;2.65;2.45;;;;;;;24.22;35.79;100287.76;1879542;75;28083;-70
2022/03/21 18:25:39;;;;;;;2.60;2.40;;;;;;;24.20;35.82;100285.74;1876197;75;28207;-70
2022/03/21 18:28:28;;;;;;;2.95;2.40;;;;;;;24.19;35.83;100286.83;1888499;75;28124;-75
2022/03/21 18:31:17;;;;;;;2.67;2.47;;;;;;;24.19;35.83;100292.32;1887709;75;28209;-71
2022/03/21 18:34:06;;;;;;;2.58;2.42;;;;;;;24.19;35.82;100293.69;1898657;75;28087;-72
2022/03/21 18:36:54;;;;;;;2.77;2.58;;;;;;;24.20;35.83;100313.20;1878011;75;28157;-72
2022/03/21 18:39:43;;;;;;;2.42;2.27;;;;;;;24.22;35.79;100301.48;1886432;75;28087;-74
2022/03/21 18:42:31;;;;;;;2.60;2.40;;;;;;;24.20;35.86;100306.33;1899926;75;28073;-74
2022/03/21 18:45:22;;;;;;;2.60;2.40;;;;;;;24.19;35.84;100309.31;1873755;75;28243;-73
2022/03/21 18:48:11;;;;;;;2.87;2.58;;;;;;;24.19;35.84;100310.69;1869744;75;28234;-73
2022/03/21 18:50:59;;;;;;;2.80;2.60;;;;;;;24.21;35.84;100308.55;1899907;75;28203;-75
2022/03/21 18:53:47;;;;;;;2.45;2.25;;;;;;;24.18;35.86;100312.59;1880336;75;28061;-74
2022/03/21 18:56:35;;;;;;;2.50;2.30;;;;;;;24.21;35.82;100312.67;1896225;75;28113;-77
2022/03/21 18:59:24;;;;;;;2.40;2.30;;;;;;;24.20;35.83;100326.92;1890200;75;28099;-71
2022/03/21 19:02:12;;;;;;;2.60;2.50;;;;;;;24.20;35.84;100329.67;1886365;75;37343;-75
2022/03/21 19:05:01;;;;;;;2.60;2.40;;;;;;;24.20;35.88;100324.18;1890787;75;28109;-74
2022/03/21 19:07:50;;;;;;;2.92;2.72;;;;;;;24.19;35.89;100340.36;1872119;75;28153;-71
2022/03/21 19:10:39;;;;;;;2.60;2.40;;;;;;;24.20;35.87;100346.70;1882394;75;28113;-75
2022/03/21 19:13:27;;;;;;;2.62;2.40;;;;;;;24.20;35.88;100346.70;1882222;75;28051;-75
2022/03/21 19:16:15;;;;;;;2.70;2.50;;;;;;;24.18;35.90;100352.39;1894353;75;28183;-72
2022/03/21 19:19:03;;;;;;;2.77;2.50;;;;;;;24.18;35.92;100355.14;1871324;75;28143;-76
2022/03/21 19:21:52;;;;;;;2.70;2.50;;;;;;;24.21;35.89;100362.94;1869178;76;28157;-74
2022/03/21 19:24:40;;;;;;;2.50;2.30;;;;;;;24.24;35.86;100361.65;1880810;75;28547;-71
2022/03/21 19:27:29;;;;;;;2.50;2.40;;;;;;;24.22;35.90;100368.75;1881268;75;28194;-73
2022/03/21 19:30:18;;;;;;;2.60;2.42;;;;;;;24.20;35.88;100371.41;1890168;75;28114;-70
2022/03/21 19:33:06;;;;;;;2.58;2.37;;;;;;;24.17;35.96;100374.06;1870219;75;28144;-76
2022/03/21 19:35:55;;;;;;;3.27;2.98;;;;;;;24.19;35.95;100376.58;1882945;75;28109;-70
2022/03/21 19:38:43;;;;;;;3.02;2.83;;;;;;;24.06;35.20;100381.66;1879153;75;28131;-70
2022/03/21 19:41:32;;;;;;;3.00;2.80;;;;;;;24.08;35.15;100371.81;1880681;75;28212;-70
2022/03/21 19:44:21;;;;;;;2.90;2.70;;;;;;;24.06;35.19;100383.03;1883742;75;28127;-69
2022/03/21 19:47:09;;;;;;;3.02;2.80;;;;;;;24.07;35.19;100390.19;1901142;75;28113;-76
2022/03/21 19:49:57;;;;;;;3.10;2.80;;;;;;;24.05;35.17;100385.42;1879411;75;28151;-69
2022/03/21 19:52:47;;;;;;;3.05;2.80;;;;;;;24.07;35.29;100391.55;1900789;75;28023;-72
2022/03/21 19:55:36;;;;;;;2.95;2.75;;;;;;;24.05;35.32;100392.28;1871900;75;28706;-70
2022/03/21 19:58:24;;;;;;;2.80;2.60;;;;;;;24.06;35.32;100398.12;1873627;75;28205;-71
2022/03/21 20:01:15;;;;;;;3.60;2.92;;;;;;;24.04;35.29;100395.55;1893134;75;28155;-71
2022/03/21 20:04:02;;;;;;;3.75;2.70;;;;;;;24.02;35.25;100397.69;1869253;76;28147;-71
2022/03/21 20:06:51;;;;;;;2.90;2.70;;;;;;;24.02;35.25;100399.58;1869268;76;28133;-72
2022/03/21 20:09:39;;;;;;;3.00;2.70;;;;;;;24.01;35.26;100402.03;1890480;75;38578;-71
2022/03/21 20:12:27;;;;;;;3.20;2.90;;;;;;;24.03;35.20;100408.14;1891184;75;28137;-73
2022/03/21 20:15:22;;;;;;;3.03;2.83;;;;;;;23.95;35.00;100412.50;1885179;75;28156;-76
2022/03/21 20:18:07;;;;;;;3.17;2.75;;;;;;;23.98;35.00;100418.94;1890864;75;28119;-75